createdAt,value
2022-10-23T00:01:27.428Z,16.20
2022-10-23T00:03:56.613Z,16.90
2022-10-23T00:06:24.529Z,17.35
2022-10-23T00:08:51.498Z,17.08
2022-10-23T00:11:22.525Z,18.33
2022-10-23T00:13:50.488Z,16.50
2022-10-23T00:16:17.399Z,16.30
2022-10-23T00:18:45.815Z,18.25
2022-10-23T00:21:15.160Z,17.80
2022-10-23T00:23:42.222Z,17.05
2022-10-23T00:26:11.480Z,17.88
2022-10-23T00:28:38.601Z,18.20
2022-10-23T00:31:06.198Z,17.75
2022-10-23T00:33:33.729Z,17.25
2022-10-23T00:36:00.712Z,18.45
2022-10-23T00:38:27.830Z,17.27
2022-10-23T00:40:54.753Z,17.27
2022-10-23T00:43:28.270Z,16.65
2022-10-23T00:45:55.547Z,16.38
2022-10-23T00:48:22.838Z,17.92
2022-10-23T00:50:50.874Z,16.15
2022-10-23T00:53:19.180Z,16.35
2022-10-23T00:55:48.169Z,16.80
2022-10-23T00:58:17.041Z,15.98
2022-10-23T01:00:55.611Z,18.35
2022-10-23T01:03:28.192Z,17.90
2022-10-23T01:06:03.773Z,18.25
2022-10-23T01:08:35.558Z,17.45
2022-10-23T01:13:39.968Z,18.80
2022-10-23T01:16:30.621Z,17.95
2022-10-23T01:19:03.600Z,17.23
2022-10-23T01:21:56.679Z,19.50
2022-10-23T01:25:09.451Z,18.73
2022-10-23T01:27:41.811Z,19.00
2022-10-23T01:30:15.274Z,20.67
2022-10-23T01:33:32.469Z,21.73
2022-10-23T01:36:03.062Z,21.40
2022-10-23T01:38:38.580Z,23.33
2022-10-23T01:41:18.579Z,23.88
2022-10-23T01:43:50.034Z,24.60
2022-10-23T01:48:51.479Z,24.92
2022-10-23T01:51:19.823Z,25.33
2022-10-23T01:53:49.250Z,24.27
2022-10-23T01:56:23.380Z,24.85
2022-10-23T01:58:52.824Z,23.95
2022-10-23T02:01:22.670Z,24.25
2022-10-23T02:03:52.766Z,23.80
2022-10-23T02:06:20.058Z,24.73
2022-10-23T02:08:47.265Z,24.77
2022-10-23T02:11:20.022Z,24.60
2022-10-23T02:14:24.359Z,23.40
2022-10-23T02:16:53.679Z,22.95
2022-10-23T02:19:43.080Z,24.85
2022-10-23T02:22:19.501Z,24.13
2022-10-23T02:24:51.286Z,25.20
2022-10-23T02:27:41.109Z,25.55
2022-10-23T02:30:13.128Z,25.02
2022-10-23T02:32:44.066Z,26.75
2022-10-23T02:35:13.085Z,26.15
2022-10-23T02:37:40.460Z,25.83
2022-10-23T02:40:09.180Z,26.00
2022-10-23T02:42:47.980Z,24.70
2022-10-23T02:45:22.482Z,25.77
2022-10-23T02:47:52.460Z,24.60
2022-10-23T02:50:46.198Z,25.58
2022-10-23T02:53:33.861Z,25.42
2022-10-23T02:56:27.749Z,24.27
2022-10-23T02:59:14.819Z,24.55
2022-10-23T03:02:20.306Z,25.02
2022-10-23T03:04:47.668Z,24.67
2022-10-23T03:07:15.270Z,24.92
2022-10-23T03:09:42.928Z,25.77
2022-10-23T03:12:09.922Z,26.35
2022-10-23T03:14:37.207Z,24.77
2022-10-23T03:17:05.361Z,25.48
2022-10-23T03:19:32.288Z,25.13
2022-10-23T03:21:59.338Z,25.27
2022-10-23T03:24:26.269Z,24.48
2022-10-23T03:26:53.281Z,25.30
2022-10-23T03:29:29.522Z,25.38
2022-10-23T03:31:56.611Z,24.42
2022-10-23T03:34:23.681Z,24.58
2022-10-23T03:36:53.188Z,25.88
2022-10-23T03:39:21.258Z,25.92
2022-10-23T03:41:48.521Z,26.13
2022-10-23T03:44:17.600Z,26.25
2022-10-23T03:46:45.800Z,25.75
2022-10-23T03:49:12.979Z,27.33
2022-10-23T03:51:44.198Z,27.00
2022-10-23T03:54:11.579Z,26.70
2022-10-23T03:56:38.641Z,26.67
2022-10-23T03:59:07.818Z,27.02
2022-10-23T04:01:34.995Z,26.20
2022-10-23T04:04:02.109Z,25.48
2022-10-23T04:06:29.578Z,27.15
2022-10-23T04:08:58.388Z,26.20
2022-10-23T04:11:25.564Z,26.13
2022-10-23T04:13:52.633Z,25.73
2022-10-23T04:16:19.778Z,24.98
2022-10-23T04:18:46.836Z,24.50
2022-10-23T04:21:13.977Z,25.42
2022-10-23T04:23:40.982Z,25.35
2022-10-23T04:26:26.278Z,26.15
2022-10-23T04:28:53.453Z,27.45
2022-10-23T04:31:20.615Z,27.30
2022-10-23T04:33:47.710Z,27.10
2022-10-23T04:36:34.887Z,28.35
2022-10-23T04:39:10.309Z,26.23
2022-10-23T04:41:38.979Z,26.85
2022-10-23T04:44:06.609Z,28.77
2022-10-23T04:46:37.509Z,29.45
2022-10-23T04:49:05.191Z,28.95
2022-10-23T04:51:50.649Z,29.25
2022-10-23T04:54:43.986Z,31.35
2022-10-23T04:57:37.270Z,32.55
2022-10-23T05:00:09.910Z,30.38
2022-10-23T05:03:03.789Z,30.00
2022-10-23T05:05:36.380Z,29.10
2022-10-23T05:08:23.178Z,29.58
2022-10-23T05:11:08.680Z,31.23
2022-10-23T05:13:41.499Z,31.63
2022-10-23T05:16:08.910Z,29.48
2022-10-23T05:18:41.223Z,29.40
2022-10-23T05:21:11.959Z,31.02
2022-10-23T05:23:41.845Z,31.95
2022-10-23T05:26:09.475Z,33.63
2022-10-23T05:28:38.108Z,37.40
2022-10-23T05:31:06.513Z,40.20
2022-10-23T05:33:37.169Z,39.90
2022-10-23T05:36:05.763Z,36.30
2022-10-23T05:38:34.986Z,37.42
2022-10-23T05:41:09.725Z,35.38
2022-10-23T05:43:37.747Z,34.78
2022-10-23T05:46:27.945Z,34.75
2022-10-23T05:49:13.623Z,34.10
2022-10-23T05:51:59.487Z,34.47
2022-10-23T05:54:40.881Z,35.42
2022-10-23T05:57:39.935Z,35.50
2022-10-23T06:00:11.367Z,37.20
2022-10-23T06:02:41.539Z,36.63
2022-10-23T06:05:40.820Z,38.10
2022-10-23T06:08:32.026Z,37.70
2022-10-23T06:10:59.260Z,36.85
2022-10-23T06:13:26.324Z,37.28
2022-10-23T06:15:53.419Z,37.05
2022-10-23T06:18:24.164Z,36.75
2022-10-23T06:20:55.909Z,35.53
2022-10-23T06:23:27.041Z,35.53
2022-10-23T06:26:15.309Z,36.60
2022-10-23T06:29:08.549Z,34.50
2022-10-23T06:31:36.411Z,31.95
2022-10-23T06:34:04.526Z,33.58
2022-10-23T06:36:31.973Z,32.65
2022-10-23T06:39:07.255Z,31.30
2022-10-23T06:41:57.255Z,33.00
2022-10-23T06:44:50.390Z,29.80
2022-10-23T06:47:30.450Z,30.25
2022-10-23T06:50:16.170Z,29.13
2022-10-23T06:52:47.442Z,28.17
2022-10-23T06:55:17.638Z,28.27
2022-10-23T06:57:45.405Z,27.67
2022-10-23T07:00:13.660Z,26.38
2022-10-23T07:02:51.042Z,26.90
2022-10-23T07:05:19.032Z,26.52
2022-10-23T07:07:46.243Z,28.33
2022-10-23T07:10:18.853Z,27.17
2022-10-23T07:12:52.249Z,28.52
2022-10-23T07:15:38.609Z,28.60
2022-10-23T07:18:14.653Z,28.83
2022-10-23T07:21:01.676Z,28.88
2022-10-23T07:23:30.910Z,29.85
2022-10-23T07:26:04.482Z,31.05
2022-10-23T07:28:31.757Z,30.23
2022-10-23T07:31:00.086Z,31.25
2022-10-23T07:33:43.744Z,32.72
2022-10-23T07:36:16.979Z,32.13
2022-10-23T07:38:44.716Z,31.75
2022-10-23T07:41:12.616Z,31.90
2022-10-23T07:43:39.865Z,32.22
2022-10-23T07:46:09.849Z,31.38
2022-10-23T07:48:39.559Z,29.17
2022-10-23T07:51:11.488Z,26.60
2022-10-23T07:53:43.381Z,27.17
2022-10-23T07:56:31.947Z,26.08
2022-10-23T07:59:19.194Z,24.02
2022-10-23T08:01:56.812Z,23.40
2022-10-23T08:04:34.470Z,23.08
2022-10-23T08:07:14.560Z,23.15
2022-10-23T08:09:44.780Z,22.42
2022-10-23T08:12:12.309Z,21.42
2022-10-23T08:14:39.910Z,21.70
2022-10-23T08:17:09.955Z,20.08
2022-10-23T08:19:56.109Z,18.45
2022-10-23T08:22:26.162Z,15.50
2022-10-23T08:24:53.133Z,16.30
2022-10-23T08:27:20.120Z,14.52
2022-10-23T08:29:48.440Z,14.75
2022-10-23T08:32:15.392Z,12.23
2022-10-23T08:34:54.309Z,12.15
2022-10-23T08:37:24.103Z,12.68
2022-10-23T08:39:53.247Z,12.48
2022-10-23T08:42:42.472Z,13.85
2022-10-23T08:45:29.073Z,12.68
2022-10-23T08:48:17.139Z,14.38
2022-10-23T08:51:11.932Z,12.48
2022-10-23T08:53:50.549Z,14.18
2022-10-23T08:56:23.287Z,11.93
2022-10-23T08:59:00.640Z,12.43
2022-10-23T09:01:50.344Z,9.52
2022-10-23T09:04:17.516Z,10.02
2022-10-23T09:06:52.217Z,8.85
2022-10-23T09:09:56.392Z,9.23
2022-10-23T09:12:25.187Z,9.95
2022-10-23T09:15:10.500Z,9.63
2022-10-23T09:17:42.868Z,8.60
2022-10-23T09:20:19.342Z,7.55
2022-10-23T09:22:48.137Z,6.18
2022-10-23T09:25:21.432Z,5.28
2022-10-23T09:27:55.710Z,5.43
2022-10-23T09:30:35.601Z,3.90
2022-10-23T09:33:21.938Z,5.13
2022-10-23T09:36:05.630Z,5.22
2022-10-23T09:38:52.445Z,5.45
2022-10-23T09:41:54.135Z,5.88
2022-10-23T09:44:32.331Z,4.75
2022-10-23T09:47:13.321Z,5.35
2022-10-23T09:49:48.029Z,4.22
2022-10-23T09:52:16.700Z,4.47
2022-10-23T09:55:02.853Z,4.75
2022-10-23T09:57:43.315Z,4.55
2022-10-23T10:00:22.670Z,4.03
2022-10-23T10:02:55.620Z,3.85
2022-10-23T10:05:42.352Z,4.00
2022-10-23T10:08:23.855Z,3.40
2022-10-23T10:11:00.247Z,4.07
2022-10-23T10:13:41.924Z,4.20
2022-10-23T10:16:37.373Z,4.60
2022-10-23T10:19:29.877Z,6.15
2022-10-23T10:22:16.931Z,5.80
2022-10-23T10:24:55.059Z,6.53
2022-10-23T10:27:31.550Z,7.32
2022-10-23T10:30:10.485Z,6.55
2022-10-23T10:32:43.790Z,4.78
2022-10-23T10:35:22.917Z,5.53
2022-10-23T10:38:30.404Z,5.40
2022-10-23T10:41:03.549Z,5.53
2022-10-23T10:43:55.351Z,4.90
2022-10-23T10:46:38.702Z,5.68
2022-10-23T10:49:30.828Z,7.18
2022-10-23T10:52:33.940Z,8.88
2022-10-23T10:55:19.880Z,9.38
2022-10-23T10:57:59.241Z,8.40
2022-10-23T11:00:29.228Z,7.90
2022-10-23T11:03:02.947Z,7.53
2022-10-23T11:05:33.362Z,6.22
2022-10-23T11:08:04.580Z,6.00
2022-10-23T11:10:33.153Z,5.05
2022-10-23T11:13:00.151Z,5.40
2022-10-23T11:15:37.499Z,4.72
2022-10-23T11:18:07.353Z,5.78
2022-10-23T11:20:50.888Z,4.55
2022-10-23T11:27:02.104Z,5.20
2022-10-23T11:29:58.979Z,4.95
2022-10-23T11:35:40.051Z,5.30
2022-10-23T11:38:19.101Z,5.20
2022-10-23T11:43:47.120Z,3.17
2022-10-23T11:46:29.754Z,3.00
2022-10-23T11:48:57.973Z,3.15
2022-10-23T11:51:35.232Z,4.38
2022-10-23T11:54:12.381Z,4.10
2022-10-23T11:56:55.249Z,6.18
2022-10-23T11:59:31.936Z,4.63
2022-10-23T12:02:09.740Z,3.25
2022-10-23T12:04:51.368Z,3.20
2022-10-23T12:07:28.856Z,3.35
2022-10-23T12:09:57.320Z,3.33
2022-10-23T12:12:40.698Z,2.80
2022-10-23T12:15:11.921Z,3.20
2022-10-23T12:17:40.322Z,2.95
2022-10-23T12:20:13.790Z,2.70
2022-10-23T12:23:11.372Z,2.60
2022-10-23T12:25:56.879Z,3.13
2022-10-23T12:28:35.407Z,4.10
2022-10-23T12:31:15.830Z,3.70
2022-10-23T12:33:46.181Z,2.92
2022-10-23T12:36:50.839Z,2.70
2022-10-23T12:39:36.399Z,3.25
2022-10-23T12:42:04.307Z,2.30
2022-10-23T12:44:31.620Z,2.80
2022-10-23T12:47:01.707Z,2.17
2022-10-23T12:49:32.153Z,2.90
2022-10-23T12:52:06.694Z,2.58
2022-10-23T12:54:39.098Z,2.38
2022-10-23T12:57:22.112Z,2.97
2022-10-23T12:59:50.947Z,2.63
2022-10-23T13:02:22.333Z,3.42
2022-10-23T13:04:50.373Z,3.22
2022-10-23T13:07:19.819Z,3.00
2022-10-23T13:09:47.023Z,2.60
2022-10-23T13:12:29.732Z,2.05
2022-10-23T13:14:59.126Z,3.40
2022-10-23T13:17:46.262Z,3.05
2022-10-23T13:20:51.856Z,3.22
2022-10-23T13:23:19.910Z,2.97
2022-10-23T13:26:25.928Z,3.70
2022-10-23T13:28:52.966Z,4.93
2022-10-23T13:31:26.519Z,4.18
2022-10-23T13:34:00.539Z,4.93
2022-10-23T13:36:29.870Z,4.20
2022-10-23T13:39:02.324Z,4.18
2022-10-23T13:41:36.210Z,5.20
2022-10-23T13:44:03.823Z,5.47
2022-10-23T13:46:30.919Z,4.25
2022-10-23T13:48:57.909Z,5.70
2022-10-23T13:51:29.903Z,4.97
2022-10-23T13:53:58.240Z,5.55
2022-10-23T13:56:26.774Z,6.32
2022-10-23T13:58:54.549Z,4.75
2022-10-23T14:01:26.735Z,4.28
2022-10-23T14:03:54.618Z,4.10
2022-10-23T14:06:21.652Z,3.47
2022-10-23T14:08:48.620Z,3.00
2022-10-23T14:11:17.971Z,3.20
2022-10-23T14:13:45.598Z,2.95
2022-10-23T14:16:14.200Z,2.88
2022-10-23T14:18:41.468Z,2.28
2022-10-23T14:21:10.549Z,2.40
2022-10-23T14:23:37.665Z,2.10
2022-10-23T14:26:07.018Z,2.47
2022-10-23T14:28:34.455Z,3.20
2022-10-23T14:31:08.999Z,3.97
2022-10-23T14:33:36.051Z,3.40
2022-10-23T14:36:03.323Z,4.07
2022-10-23T14:38:30.369Z,3.40
2022-10-23T14:40:57.399Z,3.42
2022-10-23T14:43:25.212Z,3.97
2022-10-23T14:45:52.641Z,4.22
2022-10-23T14:48:20.068Z,4.18
2022-10-23T14:50:49.003Z,3.50
2022-10-23T14:53:16.377Z,3.58
2022-10-23T14:55:43.310Z,3.50
2022-10-23T14:58:10.394Z,5.32
2022-10-23T15:00:37.329Z,6.25
2022-10-23T15:03:04.346Z,7.57
2022-10-23T15:05:31.436Z,8.77
2022-10-23T15:07:59.132Z,8.82
2022-10-23T15:10:26.131Z,8.80
2022-10-23T15:12:53.152Z,10.15
2022-10-23T15:15:20.163Z,10.70
2022-10-23T15:17:47.231Z,10.13
2022-10-23T15:20:14.201Z,11.82
2022-10-23T15:22:41.386Z,10.68
2022-10-23T15:25:10.579Z,10.57
2022-10-23T15:27:39.206Z,10.23
2022-10-23T15:30:06.767Z,9.50
2022-10-23T15:32:33.692Z,10.02
2022-10-23T15:35:01.012Z,9.07
2022-10-23T15:37:28.083Z,9.77
2022-10-23T15:39:59.726Z,11.43
2022-10-23T15:42:29.111Z,12.70
2022-10-23T15:44:56.086Z,12.65
2022-10-23T15:47:23.090Z,14.27
2022-10-23T15:49:49.983Z,14.40
2022-10-23T15:52:35.369Z,15.80
2022-10-23T15:55:21.359Z,18.25
2022-10-23T15:57:48.343Z,22.38
2022-10-23T16:00:18.307Z,20.85
2022-10-23T16:02:47.789Z,55.50
2022-10-23T16:05:17.433Z,75.85
2022-10-23T16:07:44.412Z,65.13
2022-10-23T16:10:11.331Z,59.00
2022-10-23T16:12:38.483Z,51.70
2022-10-23T16:15:08.092Z,44.40
2022-10-23T16:17:35.208Z,39.20
2022-10-23T16:20:02.176Z,41.08
2022-10-23T16:22:29.138Z,44.00
2022-10-23T16:24:56.317Z,40.53
2022-10-23T16:27:23.297Z,37.72
2022-10-23T16:29:50.500Z,39.17
2022-10-23T16:32:18.340Z,39.03
2022-10-23T16:34:45.933Z,40.63
2022-10-23T16:37:12.847Z,38.90
2022-10-23T16:40:06.221Z,42.95
2022-10-23T16:42:51.500Z,52.97
2022-10-23T16:45:39.462Z,49.08
2022-10-23T16:48:06.441Z,61.58
2022-10-23T16:50:33.592Z,58.60
2022-10-23T16:53:00.806Z,52.97
2022-10-23T16:55:27.747Z,58.97
2022-10-23T16:57:54.764Z,62.08
2022-10-23T17:00:22.743Z,63.35
2022-10-23T17:02:49.865Z,59.67
2022-10-23T17:05:17.088Z,66.45
2022-10-23T17:07:44.389Z,71.88
2022-10-23T17:10:11.532Z,72.30
2022-10-23T17:12:38.463Z,74.03
2022-10-23T17:15:06.023Z,62.45
2022-10-23T17:17:33.046Z,70.43
2022-10-23T17:20:00.054Z,72.28
2022-10-23T17:22:27.842Z,69.35
2022-10-23T17:24:54.977Z,67.20
2022-10-23T17:27:22.214Z,69.95
2022-10-23T17:29:49.167Z,86.38
2022-10-23T17:32:16.317Z,74.35
2022-10-23T17:34:43.334Z,83.78
2022-10-23T17:37:13.286Z,89.80
2022-10-23T17:39:41.416Z,86.10
2022-10-23T17:42:08.676Z,82.63
2022-10-23T17:44:36.351Z,85.03
2022-10-23T17:47:03.557Z,74.05
2022-10-23T17:49:30.647Z,72.70
2022-10-23T17:51:58.243Z,68.40
2022-10-23T17:54:26.846Z,71.10
2022-10-23T17:56:54.471Z,74.50
2022-10-23T17:59:21.744Z,79.00
2022-10-23T18:01:49.927Z,90.75
2022-10-23T18:04:19.034Z,90.93
2022-10-23T18:06:49.240Z,97.25
2022-10-23T18:09:17.203Z,110.47
2022-10-23T18:11:48.884Z,94.00
2022-10-23T18:14:19.966Z,103.57
2022-10-23T18:16:47.670Z,91.55
2022-10-23T18:19:16.101Z,85.32
2022-10-23T18:21:43.287Z,77.30
2022-10-23T18:24:10.605Z,70.20
2022-10-23T18:26:39.399Z,67.85
2022-10-23T18:29:10.345Z,62.90
2022-10-23T18:31:38.011Z,64.47
2022-10-23T18:34:33.085Z,68.95
2022-10-23T18:37:01.167Z,66.70
2022-10-23T18:39:29.279Z,78.45
2022-10-23T18:41:58.225Z,73.78
2022-10-23T18:44:27.122Z,66.78
2022-10-23T18:46:57.065Z,73.47
2022-10-23T18:49:24.550Z,70.32
2022-10-23T18:51:52.006Z,86.47
2022-10-23T18:54:21.148Z,75.25
2022-10-23T18:56:48.859Z,63.03
2022-10-23T18:59:18.963Z,96.93
2022-10-23T19:01:47.585Z,91.45
2022-10-23T19:04:18.094Z,96.38
2022-10-23T19:06:46.739Z,88.72
2022-10-23T19:09:15.206Z,110.28
2022-10-23T19:11:43.334Z,93.38
2022-10-23T19:14:10.371Z,136.73
2022-10-23T19:17:03.051Z,115.18
2022-10-23T19:19:36.413Z,126.80
2022-10-23T19:22:04.309Z,98.72
2022-10-23T19:24:39.497Z,104.43
2022-10-23T19:27:07.506Z,119.93
2022-10-23T19:29:39.309Z,94.82
2022-10-23T19:32:06.877Z,124.80
2022-10-23T19:34:33.804Z,171.43
2022-10-23T19:37:01.295Z,119.28
2022-10-23T19:39:28.398Z,102.45
2022-10-23T19:41:55.640Z,118.03
2022-10-23T19:44:22.897Z,103.15
2022-10-23T19:46:50.107Z,94.78
2022-10-23T19:49:18.171Z,106.72
2022-10-23T19:51:50.902Z,104.90
2022-10-23T19:54:20.372Z,143.93
2022-10-23T19:56:47.966Z,122.25
2022-10-23T19:59:16.642Z,111.32
2022-10-23T20:01:46.429Z,105.70
2022-10-23T20:04:19.273Z,109.90
2022-10-23T20:06:47.061Z,107.07
2022-10-23T20:09:14.296Z,106.07
2022-10-23T20:11:43.557Z,93.03
2022-10-23T20:14:10.588Z,108.93
2022-10-23T20:16:38.871Z,114.93
2022-10-23T20:19:10.563Z,118.60
2022-10-23T20:21:39.317Z,113.10
2022-10-23T20:24:07.023Z,109.32
2022-10-23T20:26:34.551Z,124.43
2022-10-23T20:29:01.626Z,115.80
2022-10-23T20:31:28.844Z,117.68
2022-10-23T20:33:56.352Z,118.63
2022-10-23T20:36:46.435Z,123.53
2022-10-23T20:39:20.307Z,112.70
2022-10-23T20:41:48.286Z,90.95
2022-10-23T20:46:50.092Z,113.50
2022-10-23T20:49:18.700Z,112.25
2022-10-23T20:51:46.139Z,111.95
2022-10-23T20:54:13.277Z,105.20
2022-10-23T20:56:40.311Z,102.25
2022-10-23T20:59:15.243Z,105.82
2022-10-23T21:01:45.198Z,96.65
2022-10-23T21:04:13.896Z,105.68
2022-10-23T21:06:51.852Z,95.63
2022-10-23T21:09:25.150Z,87.53
2022-10-23T21:11:52.249Z,91.38
2022-10-23T21:14:19.356Z,86.95
2022-10-23T21:16:46.736Z,89.78
2022-10-23T21:19:15.832Z,88.72
2022-10-23T21:21:43.979Z,102.22
2022-10-23T21:24:14.722Z,95.22
2022-10-23T21:26:42.433Z,86.68
2022-10-23T21:29:18.994Z,77.82
2022-10-23T21:31:55.054Z,75.55
2022-10-23T21:34:23.449Z,73.95
2022-10-23T21:39:37.633Z,70.47
2022-10-23T21:42:04.797Z,64.32
2022-10-23T21:44:31.790Z,65.35
2022-10-23T21:46:58.661Z,61.50
2022-10-23T21:49:25.711Z,64.63
2022-10-23T21:51:53.278Z,84.07
2022-10-23T21:54:20.906Z,68.88
2022-10-23T21:56:50.641Z,66.03
2022-10-23T21:59:20.669Z,64.50
2022-10-23T22:01:49.074Z,74.72
2022-10-23T22:04:17.837Z,71.90
2022-10-23T22:06:45.670Z,75.25
2022-10-23T22:09:15.730Z,63.00
2022-10-23T22:11:43.077Z,62.67
2022-10-23T22:14:10.198Z,66.43
2022-10-23T22:16:37.454Z,68.63
2022-10-23T22:19:04.541Z,73.40
2022-10-23T22:21:32.090Z,58.33
2022-10-23T22:24:00.177Z,68.03
2022-10-23T22:26:38.763Z,57.58
2022-10-23T22:29:14.739Z,46.72
2022-10-23T22:31:44.251Z,58.30
2022-10-23T22:34:25.339Z,60.65
2022-10-23T22:37:04.467Z,68.07
2022-10-23T22:39:31.393Z,59.90
2022-10-23T22:41:58.460Z,64.72
2022-10-23T22:44:25.364Z,57.25
2022-10-23T22:46:52.422Z,51.05
2022-10-23T22:49:19.466Z,44.65
2022-10-23T22:51:46.639Z,53.65
2022-10-23T22:54:13.559Z,45.20
2022-10-23T22:56:41.820Z,53.53
2022-10-23T22:59:09.098Z,64.93
2022-10-23T23:01:39.491Z,66.60
2022-10-23T23:04:19.492Z,71.05
2022-10-23T23:06:54.197Z,72.43
2022-10-23T23:09:21.105Z,79.20
2022-10-23T23:11:52.547Z,62.25
2022-10-23T23:14:24.086Z,39.55
2022-10-23T23:16:53.071Z,52.90
2022-10-23T23:19:20.287Z,58.38
2022-10-23T23:21:47.432Z,45.53
2022-10-23T23:24:14.472Z,39.53
2022-10-23T23:26:41.477Z,42.10
2022-10-23T23:29:08.698Z,45.85
2022-10-23T23:31:35.618Z,55.38
2022-10-23T23:34:02.752Z,55.05
2022-10-23T23:36:29.837Z,57.38
2022-10-23T23:38:57.943Z,39.75
2022-10-23T23:41:25.764Z,43.17
2022-10-23T23:43:54.182Z,48.33
2022-10-23T23:46:21.129Z,55.80
2022-10-23T23:48:49.562Z,50.53
2022-10-23T23:51:18.317Z,45.53
2022-10-23T23:53:45.370Z,47.67
2022-10-23T23:56:12.378Z,46.65
2022-10-23T23:58:39.446Z,46.42
